Time;durP1;ratioP1;P1;durP2;ratioP2;P2;SDS_P1;SDS_P2;PMS_P1;PMS_P2;Temp;Humidity;BMP_temperature;BMP_pressure;BME280_temperature;BME280_humidity;BME280_pressure;Samples;Min_cycle;Max_cycle;Signal;HPM_P1;HPM_P2
2021/04/23 00:00:59;;;;;;;27.67;26.17;;;;;;;;;;5019373;28;20064;-48
2021/04/23 00:03:29;;;;;;;28.75;27.27;;;;;;;;;;5027864;28;20818;-47
2021/04/23 00:06:16;;;;;;;22.40;21.70;;;;;;;;;;5026834;28;20045;-50
2021/04/23 00:08:43;;;;;;;21.60;20.90;;;;;;;;;;5026645;28;20533;-49
2021/04/23 00:11:10;;;;;;;23.35;22.55;;;;;;;;;;5029553;28;20034;-48
2021/04/23 00:13:37;;;;;;;25.80;24.80;;;;;;;;;;5027719;28;20038;-49
2021/04/23 00:16:04;;;;;;;23.25;22.45;;;;;;;;;;5019204;28;20034;-47
2021/04/23 00:18:31;;;;;;;22.40;21.60;;;;;;;;;;5026002;28;20041;-48
2021/04/23 00:20:57;;;;;;;24.02;23.10;;;;;;;;;;5025484;28;20037;-46
2021/04/23 00:23:25;;;;;;;24.08;22.90;;;;;;;;;;5023576;28;20125;-47
2021/04/23 00:25:52;;;;;;;25.35;24.40;;;;;;;;;;5025783;28;20041;-47
2021/04/23 00:28:18;;;;;;;23.08;22.45;;;;;;;;;;5029030;28;20417;-47
2021/04/23 00:30:46;;;;;;;24.77;23.90;;;;;;;;;;5029291;28;20057;-47
2021/04/23 00:33:12;;;;;;;24.63;23.92;;;;;;;;;;5027145;28;20655;-51
2021/04/23 00:35:41;;;;;;;27.35;26.10;;;;;;;;;;5023088;28;20372;-49
2021/04/23 00:38:09;;;;;;;25.45;24.65;;;;;;;;;;5023291;28;20041;-49
2021/04/23 00:40:39;;;;;;;24.10;23.08;;;;;;;;;;5027597;28;20053;-46
2021/04/23 00:43:06;;;;;;;23.30;22.48;;;;;;;;;;5024331;28;20470;-50
2021/04/23 00:45:32;;;;;;;24.52;23.75;;;;;;;;;;5026395;28;20045;-47
2021/04/23 00:48:01;;;;;;;22.33;21.38;;;;;;;;;;5030111;28;20045;-51
2021/04/23 00:50:38;;;;;;;23.38;22.52;;;;;;;;;;5019233;28;20739;-48
2021/04/23 00:53:04;;;;;;;22.30;21.70;;;;;;;;;;5032665;28;20037;-48
2021/04/23 00:55:31;;;;;;;23.58;22.77;;;;;;;;;;5030202;28;20056;-48
2021/04/23 00:57:57;;;;;;;23.45;22.67;;;;;;;;;;5015920;28;20125;-48
2021/04/23 01:00:24;;;;;;;24.08;23.17;;;;;;;;;;5028842;28;20050;-48
2021/04/23 01:02:51;;;;;;;23.88;22.98;;;;;;;;;;5031376;28;20343;-47
2021/04/23 01:05:17;;;;;;;25.75;24.85;;;;;;;;;;5031953;28;20717;-49
2021/04/23 01:07:45;;;;;;;25.05;24.05;;;;;;;;;;5031382;28;20056;-51
2021/04/23 01:10:12;;;;;;;28.67;27.58;;;;;;;;;;5033044;28;20536;-47
2021/04/23 01:12:38;;;;;;;28.15;27.08;;;;;;;;;;5030840;28;20079;-49
2021/04/23 01:15:05;;;;;;;28.40;27.13;;;;;;;;;;5030869;28;20049;-49
2021/04/23 01:17:32;;;;;;;29.00;27.42;;;;;;;;;;5031636;28;20041;-51
2021/04/23 01:19:58;;;;;;;31.42;29.67;;;;;;;;;;5030436;28;20067;-50
2021/04/23 01:22:25;;;;;;;30.40;29.00;;;;;;;;;;5032603;28;20469;-47
2021/04/23 01:24:52;;;;;;;25.80;24.83;;;;;;;;;;5026919;28;20609;-49
2021/04/23 01:27:18;;;;;;;29.63;28.13;;;;;;;;;;5025216;28;20040;-51
2021/04/23 01:29:45;;;;;;;24.63;23.75;;;;;;;;;;5031658;28;20037;-49
2021/04/23 01:32:11;;;;;;;25.40;24.63;;;;;;;;;;5031744;28;20038;-46
2021/04/23 01:34:38;;;;;;;28.52;27.27;;;;;;;;;;5027709;28;20047;-48
2021/04/23 01:37:05;;;;;;;30.08;28.33;;;;;;;;;;5031110;28;20061;-48
2021/04/23 01:39:33;;;;;;;29.90;28.25;;;;;;;;;;5022352;28;20053;-49
2021/04/23 01:42:00;;;;;;;29.05;27.67;;;;;;;;;;5010954;28;20037;-48
2021/04/23 01:44:29;;;;;;;26.85;25.73;;;;;;;;;;5022298;28;20087;-49
2021/04/23 01:46:56;;;;;;;26.65;25.50;;;;;;;;;;5031822;28;20053;-51
2021/04/23 01:49:23;;;;;;;26.77;25.77;;;;;;;;;;5028183;28;20045;-52
2021/04/23 01:51:51;;;;;;;28.38;27.38;;;;;;;;;;5032020;28;20045;-48
2021/04/23 01:54:18;;;;;;;28.60;27.30;;;;;;;;;;5030162;28;20037;-49
2021/04/23 01:56:44;;;;;;;26.58;25.50;;;;;;;;;;5018433;28;20575;-48
2021/04/23 01:59:12;;;;;;;26.90;26.00;;;;;;;;;;5031569;28;20144;-50
2021/04/23 02:01:38;;;;;;;24.70;23.40;;;;;;;;;;5029037;28;20056;-48
2021/04/23 02:04:05;;;;;;;28.08;26.98;;;;;;;;;;5030909;28;20041;-50
2021/04/23 02:06:32;;;;;;;27.85;26.85;;;;;;;;;;5026652;28;20046;-48
2021/04/23 02:08:58;;;;;;;25.35;24.52;;;;;;;;;;5024586;28;20046;-49
2021/04/23 02:11:26;;;;;;;27.50;25.92;;;;;;;;;;5025342;28;20138;-48
2021/04/23 02:13:55;;;;;;;26.67;25.73;;;;;;;;;;5020338;28;20092;-50
2021/04/23 02:16:22;;;;;;;26.33;25.45;;;;;;;;;;5029648;28;20490;-48
2021/04/23 02:18:49;;;;;;;27.42;26.38;;;;;;;;;;5027507;28;20041;-49
2021/04/23 02:21:17;;;;;;;22.13;21.73;;;;;;;;;;5030022;28;20037;-49
2021/04/23 02:23:47;;;;;;;26.05;25.35;;;;;;;;;;5030130;28;20042;-48
2021/04/23 02:26:14;;;;;;;24.83;23.95;;;;;;;;;;5030023;28;20045;-47
2021/04/23 02:28:41;;;;;;;25.75;25.15;;;;;;;;;;5031667;28;20136;-49
2021/04/23 02:31:13;;;;;;;25.05;24.45;;;;;;;;;;5029546;28;20048;-47
2021/04/23 02:33:40;;;;;;;25.48;24.88;;;;;;;;;;5014497;28;20133;-48
2021/04/23 02:36:07;;;;;;;25.98;25.08;;;;;;;;;;5027015;28;20034;-48
2021/04/23 02:38:34;;;;;;;23.92;23.33;;;;;;;;;;5029297;28;20042;-51
2021/04/23 02:41:01;;;;;;;21.40;20.70;;;;;;;;;;5030774;28;20128;-48
2021/04/23 02:43:30;;;;;;;24.73;24.02;;;;;;;;;;5028356;28;20175;-50
2021/04/23 02:45:57;;;;;;;25.58;24.83;;;;;;;;;;5026606;28;20068;-47
2021/04/23 02:48:24;;;;;;;24.10;23.50;;;;;;;;;;5026647;28;20994;-47
2021/04/23 02:50:55;;;;;;;24.48;23.67;;;;;;;;;;5020465;28;20375;-51
2021/04/23 02:53:21;;;;;;;21.73;21.23;;;;;;;;;;5029631;28;20111;-49
2021/04/23 02:55:48;;;;;;;22.65;21.92;;;;;;;;;;5027200;28;20041;-49
2021/04/23 02:58:20;;;;;;;23.08;22.38;;;;;;;;;;5016707;28;20037;-48
2021/04/23 03:00:48;;;;;;;25.13;24.33;;;;;;;;;;5026125;28;20045;-51
2021/04/23 03:03:15;;;;;;;26.75;25.77;;;;;;;;;;5018405;28;20026;-47
2021/04/23 03:05:42;;;;;;;24.27;23.40;;;;;;;;;;5026698;28;20069;-47
2021/04/23 03:08:08;;;;;;;24.25;23.52;;;;;;;;;;5027932;28;20041;-51
2021/04/23 03:10:40;;;;;;;24.83;24.15;;;;;;;;;;5031111;28;20037;-47
2021/04/23 03:13:08;;;;;;;25.85;25.13;;;;;;;;;;5026505;28;20042;-51
2021/04/23 03:15:34;;;;;;;23.55;22.55;;;;;;;;;;5028480;28;20045;-49
2021/04/23 03:18:01;;;;;;;25.45;24.75;;;;;;;;;;5025935;28;20122;-47
2021/04/23 03:20:27;;;;;;;24.08;23.48;;;;;;;;;;5027712;28;20103;-46
2021/04/23 03:22:54;;;;;;;24.05;23.35;;;;;;;;;;5027742;28;20077;-47
2021/04/23 03:25:21;;;;;;;24.67;24.08;;;;;;;;;;5028843;28;20498;-48
2021/04/23 03:27:47;;;;;;;24.20;23.52;;;;;;;;;;5029832;28;20560;-46
2021/04/23 03:30:15;;;;;;;24.48;23.73;;;;;;;;;;5024223;28;20554;-46
2021/04/23 03:32:42;;;;;;;22.25;21.85;;;;;;;;;;5021081;28;20119;-46
2021/04/23 03:35:09;;;;;;;24.42;23.92;;;;;;;;;;5027324;28;20041;-45
2021/04/23 03:37:36;;;;;;;22.73;22.08;;;;;;;;;;5028031;28;20112;-47
2021/04/23 03:40:04;;;;;;;24.23;23.63;;;;;;;;;;5028738;28;20033;-49
2021/04/23 03:42:30;;;;;;;25.42;24.73;;;;;;;;;;5027103;28;20061;-48
2021/04/23 03:44:56;;;;;;;24.38;23.65;;;;;;;;;;5017707;28;20494;-45
2021/04/23 03:47:22;;;;;;;26.08;25.38;;;;;;;;;;5028631;28;20068;-46
2021/04/23 03:49:49;;;;;;;23.98;23.30;;;;;;;;;;5027828;28;20031;-46
2021/04/23 03:52:16;;;;;;;26.58;25.65;;;;;;;;;;5029680;28;20037;-45
2021/04/23 03:54:42;;;;;;;28.20;27.10;;;;;;;;;;5026042;28;20053;-46
2021/04/23 03:57:09;;;;;;;24.83;24.17;;;;;;;;;;5019737;28;20402;-49
2021/04/23 03:59:35;;;;;;;25.40;24.83;;;;;;;;;;5028689;28;20033;-50
2021/04/23 04:02:02;;;;;;;26.92;25.92;;;;;;;;;;5028512;28;20117;-47
2021/04/23 04:04:29;;;;;;;24.98;24.08;;;;;;;;;;5018286;28;20038;-47
2021/04/23 04:06:55;;;;;;;27.13;26.15;;;;;;;;;;5021483;28;20037;-46
2021/04/23 04:09:21;;;;;;;25.73;24.83;;;;;;;;;;5028725;28;20045;-48
2021/04/23 04:11:47;;;;;;;26.92;26.13;;;;;;;;;;5026403;28;20041;-50
2021/04/23 04:14:14;;;;;;;29.08;27.83;;;;;;;;;;5027245;28;20049;-47
2021/04/23 04:16:40;;;;;;;29.17;28.02;;;;;;;;;;5028939;28;20030;-47
2021/04/23 04:19:07;;;;;;;29.33;28.10;;;;;;;;;;5024802;28;20095;-47
2021/04/23 04:21:34;;;;;;;28.50;27.50;;;;;;;;;;5029868;28;20041;-46
2021/04/23 04:24:00;;;;;;;29.33;28.13;;;;;;;;;;5026616;28;20049;-48
2021/04/23 04:26:27;;;;;;;28.55;27.63;;;;;;;;;;5028552;28;20047;-46
2021/04/23 04:28:53;;;;;;;29.08;27.70;;;;;;;;;;5029638;28;20091;-46
2021/04/23 04:31:19;;;;;;;26.77;25.98;;;;;;;;;;5027835;28;20048;-49
2021/04/23 04:33:49;;;;;;;28.20;27.05;;;;;;;;;;5029099;28;20038;-45
2021/04/23 04:36:16;;;;;;;27.15;26.33;;;;;;;;;;5026542;28;20058;-46
2021/04/23 04:38:42;;;;;;;28.25;27.40;;;;;;;;;;5028625;28;20037;-49
2021/04/23 04:41:09;;;;;;;26.52;25.80;;;;;;;;;;5027183;28;20037;-45
2021/04/23 04:43:36;;;;;;;27.00;26.13;;;;;;;;;;5026709;28;20099;-47
2021/04/23 04:46:02;;;;;;;26.70;25.95;;;;;;;;;;5027432;28;20069;-47
2021/04/23 04:48:28;;;;;;;26.63;25.55;;;;;;;;;;5024843;28;20053;-49
2021/04/23 04:50:57;;;;;;;26.92;26.33;;;;;;;;;;5022178;28;20557;-47
2021/04/23 04:53:23;;;;;;;24.83;24.23;;;;;;;;;;5023955;28;21262;-47
2021/04/23 04:55:51;;;;;;;26.15;25.38;;;;;;;;;;5012470;28;20045;-48
2021/04/23 04:58:19;;;;;;;25.00;24.15;;;;;;;;;;5028078;28;20048;-48
2021/04/23 05:00:45;;;;;;;26.20;25.23;;;;;;;;;;5027756;28;20038;-48
2021/04/23 05:03:12;;;;;;;24.88;23.80;;;;;;;;;;5024617;28;20041;-47
2021/04/23 05:05:39;;;;;;;27.05;26.35;;;;;;;;;;5026247;28;20081;-48
2021/04/23 05:08:05;;;;;;;25.73;25.08;;;;;;;;;;5025459;28;20132;-47
2021/04/23 05:10:31;;;;;;;25.98;25.25;;;;;;;;;;5028971;28;20041;-47
2021/04/23 05:12:58;;;;;;;26.38;25.42;;;;;;;;;;5018400;28;20052;-46
2021/04/23 05:15:24;;;;;;;26.60;25.67;;;;;;;;;;5019496;28;20041;-47
2021/04/23 05:17:50;;;;;;;28.63;27.40;;;;;;;;;;5025715;28;20061;-47
2021/04/23 05:20:18;;;;;;;26.65;25.63;;;;;;;;;;5024928;28;20076;-47
2021/04/23 05:22:45;;;;;;;25.73;25.05;;;;;;;;;;5027116;28;20138;-50
2021/04/23 05:25:12;;;;;;;25.30;24.80;;;;;;;;;;5025968;28;20057;-48
2021/04/23 05:27:39;;;;;;;26.25;25.23;;;;;;;;;;5027451;28;20517;-45
2021/04/23 05:30:06;;;;;;;24.92;24.33;;;;;;;;;;5027444;28;20044;-48
2021/04/23 05:32:32;;;;;;;25.27;24.67;;;;;;;;;;5031822;28;20041;-48
2021/04/23 05:34:59;;;;;;;24.83;24.23;;;;;;;;;;5028202;28;20025;-47
2021/04/23 05:37:26;;;;;;;24.33;23.60;;;;;;;;;;5017047;28;20553;-46
2021/04/23 05:39:52;;;;;;;25.27;24.58;;;;;;;;;;5031118;28;20041;-48
2021/04/23 05:42:19;;;;;;;21.38;20.83;;;;;;;;;;5030009;28;20099;-47
2021/04/23 05:44:45;;;;;;;24.25;23.58;;;;;;;;;;5040906;28;20033;-48
2021/04/23 05:47:12;;;;;;;24.38;23.58;;;;;;;;;;5029531;28;20080;-47
2021/04/23 05:49:39;;;;;;;25.75;25.05;;;;;;;;;;5031526;28;20514;-46
2021/04/23 05:52:07;;;;;;;24.30;23.73;;;;;;;;;;5032217;28;20045;-49
2021/04/23 05:54:33;;;;;;;24.65;23.92;;;;;;;;;;5030741;28;20095;-49
2021/04/23 05:57:00;;;;;;;24.98;24.15;;;;;;;;;;5031719;28;20448;-46
2021/04/23 05:59:26;;;;;;;25.27;24.38;;;;;;;;;;5027259;28;20108;-48
2021/04/23 06:01:53;;;;;;;27.42;26.33;;;;;;;;;;5031272;28;20033;-49
2021/04/23 06:04:19;;;;;;;26.30;25.20;;;;;;;;;;5030324;28;20610;-47
2021/04/23 06:06:46;;;;;;;26.35;25.23;;;;;;;;;;5030862;28;20040;-45
2021/04/23 06:09:12;;;;;;;25.80;24.70;;;;;;;;;;5031328;28;20037;-45
2021/04/23 06:11:40;;;;;;;26.70;25.73;;;;;;;;;;5027710;28;20073;-47
2021/04/23 06:14:06;;;;;;;23.73;23.02;;;;;;;;;;5025541;28;20119;-47
2021/04/23 06:16:33;;;;;;;24.67;23.98;;;;;;;;;;5029965;28;20041;-50
2021/04/23 06:19:00;;;;;;;23.88;23.10;;;;;;;;;;5029586;28;20120;-48
2021/04/23 06:21:27;;;;;;;24.60;23.88;;;;;;;;;;5030734;28;20041;-47
2021/04/23 06:23:53;;;;;;;25.42;23.85;;;;;;;;;;5030470;28;20419;-46
2021/04/23 06:26:19;;;;;;;24.73;24.00;;;;;;;;;;5027185;28;20434;-44
2021/04/23 06:28:45;;;;;;;21.73;20.90;;;;;;;;;;5024306;28;20041;-46
2021/04/23 06:31:13;;;;;;;22.50;21.73;;;;;;;;;;5015500;28;20046;-48
2021/04/23 06:33:43;;;;;;;19.85;19.13;;;;;;;;;;5030139;28;20041;-45
2021/04/23 06:36:09;;;;;;;10.23;10.02;;;;;;;;;;5029766;28;20120;-45
2021/04/23 06:38:35;;;;;;;13.27;12.43;;;;;;;;;;5031108;28;20128;-51
2021/04/23 06:41:02;;;;;;;10.65;10.20;;;;;;;;;;5024351;28;20498;-47
2021/04/23 06:43:29;;;;;;;8.65;8.35;;;;;;;;;;5030957;28;20077;-48
2021/04/23 06:45:55;;;;;;;9.73;9.10;;;;;;;;;;5029337;28;20053;-49
2021/04/23 06:48:22;;;;;;;5.95;5.75;;;;;;;;;;5029185;28;20064;-47
2021/04/23 06:50:48;;;;;;;4.63;4.53;;;;;;;;;;5021697;28;20042;-49
2021/04/23 06:53:14;;;;;;;4.88;4.68;;;;;;;;;;5025521;28;20037;-45
2021/04/23 06:55:43;;;;;;;5.82;5.72;;;;;;;;;;5029341;28;20029;-46
2021/04/23 06:58:09;;;;;;;6.55;6.32;;;;;;;;;;5027483;28;20045;-47
2021/04/23 07:00:37;;;;;;;5.55;5.25;;;;;;;;;;5012814;28;20066;-45
2021/04/23 07:03:07;;;;;;;2.97;2.97;;;;;;;;;;5024977;28;20687;-47
2021/04/23 07:05:33;;;;;;;2.67;2.47;;;;;;;;;;5028242;28;20088;-49
2021/04/23 07:08:00;;;;;;;3.88;3.63;;;;;;;;;;5029858;28;20041;-48
2021/04/23 07:10:27;;;;;;;3.38;3.28;;;;;;;;;;5027831;28;20494;-48
2021/04/23 07:12:53;;;;;;;3.83;3.58;;;;;;;;;;5012668;28;20038;-45
2021/04/23 07:15:22;;;;;;;5.35;5.05;;;;;;;;;;5028386;28;20359;-45
2021/04/23 07:17:49;;;;;;;4.35;4.20;;;;;;;;;;5027132;28;20073;-46
2021/04/23 07:20:31;;;;;;;4.38;4.28;;;;;;;;;;5029705;28;20051;-50
2021/04/23 07:22:58;;;;;;;3.83;3.47;;;;;;;;;;5028617;28;20037;-46
2021/04/23 07:25:24;;;;;;;4.38;4.05;;;;;;;;;;5028151;28;20053;-50
2021/04/23 07:27:51;;;;;;;2.90;2.70;;;;;;;;;;5029178;28;20049;-45
2021/04/23 07:30:19;;;;;;;2.47;2.42;;;;;;;;;;5028867;28;20030;-47
2021/04/23 07:32:46;;;;;;;3.15;3.00;;;;;;;;;;5030622;28;20469;-45
2021/04/23 07:35:13;;;;;;;2.55;2.45;;;;;;;;;;5028739;28;20042;-49
2021/04/23 07:37:39;;;;;;;5.75;1.90;;;;;;;;;;5025300;28;20389;-45
2021/04/23 07:40:06;;;;;;;1.63;1.52;;;;;;;;;;5024202;28;20049;-49
2021/04/23 07:42:33;;;;;;;3.35;1.30;;;;;;;;;;5015488;28;20041;-48
2021/04/23 07:45:00;;;;;;;2.75;1.25;;;;;;;;;;5030157;28;20049;-45
2021/04/23 07:47:26;;;;;;;4.10;1.40;;;;;;;;;;5028470;28;20033;-47
2021/04/23 07:49:52;;;;;;;1.50;1.45;;;;;;;;;;5023065;28;20381;-50
2021/04/23 07:52:19;;;;;;;1.15;1.00;;;;;;;;;;5025097;28;20136;-47
2021/04/23 07:54:46;;;;;;;0.90;0.90;;;;;;;;;;5015915;28;20049;-45
2021/04/23 07:57:12;;;;;;;1.70;1.13;;;;;;;;;;5029383;28;20072;-45
2021/04/23 07:59:38;;;;;;;1.35;1.10;;;;;;;;;;5028614;28;20064;-46
2021/04/23 08:02:05;;;;;;;1.00;1.00;;;;;;;;;;5027881;28;20116;-45
2021/04/23 08:04:34;;;;;;;2.00;1.00;;;;;;;;;;5024886;28;20057;-48
2021/04/23 08:07:00;;;;;;;0.90;0.90;;;;;;;;;;5016027;28;20042;-48
2021/04/23 08:09:27;;;;;;;0.90;0.90;;;;;;;;;;5029606;28;20517;-44
2021/04/23 08:11:53;;;;;;;0.80;0.80;;;;;;;;;;5029363;28;20041;-47
2021/04/23 08:14:19;;;;;;;0.98;0.90;;;;;;;;;;5029871;28;20053;-47
2021/04/23 08:16:45;;;;;;;0.90;0.90;;;;;;;;;;5028232;28;20048;-49
2021/04/23 08:19:12;;;;;;;0.90;0.90;;;;;;;;;;5014001;28;20050;-45
2021/04/23 08:21:38;;;;;;;0.90;0.90;;;;;;;;;;5023564;28;20046;-49
2021/04/23 08:24:05;;;;;;;1.10;0.82;;;;;;;;;;5013771;28;20133;-47
2021/04/23 08:26:31;;;;;;;1.25;0.98;;;;;;;;;;5030107;28;20469;-49
2021/04/23 08:28:58;;;;;;;1.08;0.98;;;;;;;;;;5023643;28;20091;-45
2021/04/23 08:31:24;;;;;;;1.00;1.00;;;;;;;;;;5029572;28;20084;-46
2021/04/23 08:33:50;;;;;;;0.88;0.88;;;;;;;;;;5026432;28;20049;-49
2021/04/23 08:36:16;;;;;;;1.25;0.80;;;;;;;;;;5013009;28;20042;-47
2021/04/23 08:38:42;;;;;;;0.90;0.90;;;;;;;;;;5029435;28;20052;-50
2021/04/23 08:41:09;;;;;;;0.98;0.90;;;;;;;;;;5028107;28;20057;-46
2021/04/23 08:43:35;;;;;;;1.00;1.00;;;;;;;;;;5024717;28;20034;-50
2021/04/23 08:46:02;;;;;;;0.80;0.80;;;;;;;;;;5022080;28;20434;-45
2021/04/23 08:48:29;;;;;;;1.27;1.27;;;;;;;;;;5027510;28;20041;-46
2021/04/23 08:50:55;;;;;;;0.95;0.95;;;;;;;;;;5028545;28;20057;-49
2021/04/23 08:53:26;;;;;;;1.73;0.90;;;;;;;;;;5028763;28;20148;-51
2021/04/23 08:55:55;;;;;;;1.42;1.42;;;;;;;;;;5027147;28;20041;-49
2021/04/23 08:58:22;;;;;;;0.90;0.90;;;;;;;;;;5026793;28;20033;-46
2021/04/23 09:00:49;;;;;;;0.90;0.90;;;;;;;;;;5029668;28;20061;-48
2021/04/23 09:03:19;;;;;;;0.82;0.80;;;;;;;;;;5025605;28;20044;-49
2021/04/23 09:06:04;;;;;;;1.27;0.80;;;;;;;;;;5029036;28;20045;-46
2021/04/23 09:08:31;;;;;;;3.35;0.90;;;;;;;;;;5019997;28;20033;-46
2021/04/23 09:10:57;;;;;;;1.13;0.90;;;;;;;;;;5025298;28;20083;-47
2021/04/23 09:13:23;;;;;;;1.15;0.90;;;;;;;;;;5033136;28;20381;-47
2021/04/23 09:15:49;;;;;;;0.80;0.80;;;;;;;;;;5031441;28;20038;-48
2021/04/23 09:18:15;;;;;;;1.23;0.90;;;;;;;;;;5030327;28;20494;-50
2021/04/23 09:20:46;;;;;;;0.98;0.88;;;;;;;;;;5022547;28;20034;-46
2021/04/23 09:23:17;;;;;;;1.05;0.80;;;;;;;;;;5023579;28;20048;-46
2021/04/23 09:25:46;;;;;;;1.90;0.88;;;;;;;;;;5023115;28;20733;-48
2021/04/23 09:28:14;;;;;;;1.05;0.90;;;;;;;;;;5029799;28;20128;-48
2021/04/23 09:30:40;;;;;;;0.95;0.90;;;;;;;;;;5030440;28;20037;-49
2021/04/23 09:33:21;;;;;;;0.82;0.82;;;;;;;;;;5031493;28;20554;-49
2021/04/23 09:35:47;;;;;;;2.35;0.98;;;;;;;;;;5028941;28;20040;-47
2021/04/23 09:38:15;;;;;;;1.40;1.30;;;;;;;;;;5024288;28;20391;-47
2021/04/23 09:40:41;;;;;;;1.00;0.90;;;;;;;;;;5030040;28;20026;-46
2021/04/23 09:43:08;;;;;;;2.80;1.00;;;;;;;;;;5030209;28;20103;-47
2021/04/23 09:45:47;;;;;;;1.85;0.90;;;;;;;;;;5030745;28;20045;-50
2021/04/23 09:48:20;;;;;;;0.90;0.90;;;;;;;;;;5026918;28;20029;-46
2021/04/23 09:50:47;;;;;;;1.55;0.90;;;;;;;;;;5031940;28;20383;-45
2021/04/23 09:53:14;;;;;;;2.10;0.80;;;;;;;;;;5030205;28;20040;-46
2021/04/23 09:55:40;;;;;;;1.02;1.00;;;;;;;;;;5018053;28;20045;-48
2021/04/23 09:58:08;;;;;;;1.00;1.00;;;;;;;;;;5020998;28;20101;-49
2021/04/23 10:00:36;;;;;;;0.90;0.90;;;;;;;;;;5023838;28;20991;-47
2021/04/23 10:03:04;;;;;;;1.55;1.15;;;;;;;;;;5030073;28;20463;-46
2021/04/23 10:05:33;;;;;;;0.80;0.80;;;;;;;;;;5024604;28;20037;-49
2021/04/23 10:08:00;;;;;;;2.15;1.58;;;;;;;;;;5026642;28;20048;-47
2021/04/23 10:10:27;;;;;;;2.15;1.45;;;;;;;;;;5030817;28;20091;-48
2021/04/23 10:13:02;;;;;;;1.40;0.98;;;;;;;;;;5030507;28;20037;-48
2021/04/23 10:15:30;;;;;;;0.80;0.80;;;;;;;;;;5032314;28;20049;-47
2021/04/23 10:17:58;;;;;;;0.90;0.90;;;;;;;;;;5026811;28;20041;-49
2021/04/23 10:20:25;;;;;;;1.27;0.90;;;;;;;;;;5022036;28;20046;-51
2021/04/23 10:22:52;;;;;;;0.80;0.80;;;;;;;;;;5031510;28;20045;-49
2021/04/23 10:25:19;;;;;;;1.38;0.80;;;;;;;;;;5029327;28;20046;-46
2021/04/23 10:27:46;;;;;;;0.80;0.80;;;;;;;;;;5032114;28;20060;-48
2021/04/23 10:30:17;;;;;;;0.80;0.80;;;;;;;;;;5027702;28;20393;-48
2021/04/23 10:33:03;;;;;;;0.90;0.90;;;;;;;;;;5030514;28;20029;-46
2021/04/23 10:35:30;;;;;;;0.88;0.88;;;;;;;;;;5029781;28;20111;-48
2021/04/23 10:38:07;;;;;;;0.80;0.80;;;;;;;;;;5029782;28;20049;-50
2021/04/23 10:40:34;;;;;;;2.15;0.95;;;;;;;;;;5031878;28;20029;-46
2021/04/23 10:43:20;;;;;;;2.67;0.80;;;;;;;;;;5027254;28;20040;-46
2021/04/23 10:46:03;;;;;;;1.75;0.90;;;;;;;;;;5028712;28;20498;-47
2021/04/23 10:48:30;;;;;;;0.80;0.80;;;;;;;;;;5030453;28;20544;-46
2021/04/23 10:50:59;;;;;;;2.53;0.80;;;;;;;;;;5029682;28;20636;-47
2021/04/23 10:53:25;;;;;;;0.90;0.90;;;;;;;;;;5017206;28;20433;-50
2021/04/23 10:55:55;;;;;;;1.65;1.15;;;;;;;;;;5029683;28;20042;-47
2021/04/23 10:58:24;;;;;;;1.20;1.20;;;;;;;;;;5028547;28;20079;-50
2021/04/23 11:00:58;;;;;;;0.80;0.80;;;;;;;;;;5024983;28;20049;-45
2021/04/23 11:03:28;;;;;;;1.77;0.80;;;;;;;;;;5025066;28;20655;-49
2021/04/23 11:06:05;;;;;;;0.80;0.80;;;;;;;;;;5013142;28;20036;-46
2021/04/23 11:08:32;;;;;;;2.30;0.90;;;;;;;;;;5029372;28;20041;-46
2021/04/23 11:11:02;;;;;;;0.80;0.80;;;;;;;;;;5029958;28;20045;-47
2021/04/23 11:13:29;;;;;;;0.80;0.80;;;;;;;;;;5025276;28;20046;-49
2021/04/23 11:16:14;;;;;;;0.80;0.80;;;;;;;;;;5031265;28;20033;-46
2021/04/23 11:18:41;;;;;;;0.85;0.85;;;;;;;;;;5032087;28;20136;-48
2021/04/23 11:21:40;;;;;;;0.77;0.77;;;;;;;;;;5020984;28;20041;-49
2021/04/23 11:24:09;;;;;;;0.80;0.80;;;;;;;;;;5025283;28;20042;-47
2021/04/23 11:27:04;;;;;;;0.80;0.80;;;;;;;;;;5027525;28;20061;-47
2021/04/23 11:29:35;;;;;;;0.80;0.80;;;;;;;;;;5008987;28;20103;-50
2021/04/23 11:32:13;;;;;;;0.70;0.70;;;;;;;;;;5024985;28;20088;-50
2021/04/23 11:34:42;;;;;;;0.80;0.80;;;;;;;;;;5028087;28;20049;-50
2021/04/23 11:37:20;;;;;;;1.88;0.80;;;;;;;;;;5025973;28;20095;-48
2021/04/23 11:40:12;;;;;;;1.45;0.75;;;;;;;;;;5027325;28;20154;-50
2021/04/23 11:42:39;;;;;;;0.77;0.77;;;;;;;;;;5017972;28;20049;-49
2021/04/23 11:45:14;;;;;;;0.80;0.80;;;;;;;;;;5026668;28;20037;-49
2021/04/23 11:47:41;;;;;;;1.25;0.75;;;;;;;;;;5026632;28;20129;-49
2021/04/23 11:50:11;;;;;;;1.85;1.10;;;;;;;;;;5027711;28;20049;-47
2021/04/23 11:52:38;;;;;;;0.80;0.80;;;;;;;;;;5025238;28;20079;-49
2021/04/23 11:55:05;;;;;;;0.90;0.90;;;;;;;;;;5024940;28;20140;-50
2021/04/23 11:57:32;;;;;;;0.80;0.80;;;;;;;;;;5027176;28;20033;-49
2021/04/23 12:00:04;;;;;;;0.80;0.80;;;;;;;;;;5027156;28;20049;-50
2021/04/23 12:02:36;;;;;;;0.85;0.80;;;;;;;;;;5016474;28;20038;-49
2021/04/23 12:05:04;;;;;;;0.80;0.80;;;;;;;;;;5026941;28;20037;-48
2021/04/23 12:07:41;;;;;;;0.90;0.90;;;;;;;;;;5031064;28;20421;-49
2021/04/23 12:10:15;;;;;;;0.80;0.80;;;;;;;;;;5029164;28;20401;-47
2021/04/23 12:12:46;;;;;;;0.82;0.82;;;;;;;;;;5024726;28;20390;-47
2021/04/23 12:15:20;;;;;;;0.85;0.85;;;;;;;;;;5022110;28;20087;-45
2021/04/23 12:17:46;;;;;;;0.80;0.80;;;;;;;;;;5027114;28;20091;-49
2021/04/23 12:20:23;;;;;;;1.00;0.80;;;;;;;;;;5027319;28;20044;-45
2021/04/23 12:22:50;;;;;;;0.80;0.80;;;;;;;;;;5030131;28;20041;-46
2021/04/23 12:25:19;;;;;;;0.80;0.80;;;;;;;;;;5026803;28;20107;-46
2021/04/23 12:27:45;;;;;;;2.13;0.80;;;;;;;;;;5027012;28;20033;-46
2021/04/23 12:30:12;;;;;;;0.80;0.80;;;;;;;;;;5018252;28;20041;-49
2021/04/23 12:32:52;;;;;;;0.82;0.82;;;;;;;;;;5023202;28;20402;-44
2021/04/23 12:35:31;;;;;;;0.85;0.85;;;;;;;;;;5023195;28;20048;-46
2021/04/23 12:37:58;;;;;;;0.80;0.80;;;;;;;;;;5028181;28;20092;-47
2021/04/23 12:40:31;;;;;;;1.15;0.90;;;;;;;;;;5030573;28;20033;-44
2021/04/23 12:42:58;;;;;;;0.90;0.90;;;;;;;;;;5021145;28;20084;-42
2021/04/23 12:45:24;;;;;;;0.80;0.80;;;;;;;;;;5031869;28;20527;-43
2021/04/23 12:47:50;;;;;;;1.10;0.80;;;;;;;;;;5020324;28;20065;-41
2021/04/23 12:50:28;;;;;;;0.70;0.70;;;;;;;;;;5032649;28;20061;-44
2021/04/23 12:52:55;;;;;;;4.10;0.90;;;;;;;;;;5030209;28;20087;-45
2021/04/23 12:55:23;;;;;;;0.80;0.80;;;;;;;;;;5032906;28;20086;-42
2021/04/23 12:57:49;;;;;;;0.80;0.80;;;;;;;;;;5032292;28;20041;-41
2021/04/23 13:00:17;;;;;;;0.80;0.80;;;;;;;;;;5032079;28;20037;-42
2021/04/23 13:02:46;;;;;;;0.70;0.70;;;;;;;;;;5023795;28;20468;-43
2021/04/23 13:05:14;;;;;;;0.75;0.75;;;;;;;;;;5026407;28;20041;-43
2021/04/23 13:07:48;;;;;;;0.70;0.70;;;;;;;;;;5016294;28;20466;-42
2021/04/23 13:10:15;;;;;;;0.73;0.70;;;;;;;;;;5023023;28;20073;-42
2021/04/23 13:12:42;;;;;;;0.77;0.77;;;;;;;;;;5022699;28;20069;-44
2021/04/23 13:15:10;;;;;;;0.80;0.80;;;;;;;;;;5026072;28;20534;-42
2021/04/23 13:17:45;;;;;;;0.80;0.80;;;;;;;;;;5027742;28;20049;-43
2021/04/23 13:20:20;;;;;;;0.70;0.70;;;;;;;;;;5031403;28;20033;-45
2021/04/23 13:22:47;;;;;;;0.80;0.80;;;;;;;;;;5019376;28;20040;-42
2021/04/23 13:25:14;;;;;;;0.80;0.80;;;;;;;;;;5024978;28;20034;-43
2021/04/23 13:27:42;;;;;;;0.80;0.80;;;;;;;;;;5029330;28;20038;-45
2021/04/23 13:30:09;;;;;;;1.65;0.80;;;;;;;;;;5025787;28;20038;-42
2021/04/23 13:32:56;;;;;;;1.05;0.77;;;;;;;;;;5030637;28;20198;-42
2021/04/23 13:35:34;;;;;;;0.70;0.70;;;;;;;;;;5031414;28;20042;-43
2021/04/23 13:38:19;;;;;;;0.80;0.80;;;;;;;;;;5025478;28;20044;-42
2021/04/23 13:40:46;;;;;;;0.70;0.70;;;;;;;;;;5022126;28;20046;-43
2021/04/23 13:43:14;;;;;;;0.65;0.65;;;;;;;;;;5019811;28;20406;-42
2021/04/23 13:45:53;;;;;;;0.93;0.70;;;;;;;;;;5029577;28;20041;-43
2021/04/23 13:48:19;;;;;;;2.92;0.70;;;;;;;;;;5019807;28;20056;-44
2021/04/23 13:50:45;;;;;;;0.70;0.70;;;;;;;;;;5019472;28;20038;-43
2021/04/23 13:53:12;;;;;;;0.70;0.70;;;;;;;;;;5022063;28;20470;-42
2021/04/23 13:55:38;;;;;;;0.70;0.70;;;;;;;;;;5031567;28;20050;-41
2021/04/23 13:58:06;;;;;;;0.70;0.70;;;;;;;;;;5026307;28;20069;-44
2021/04/23 14:00:48;;;;;;;0.70;0.70;;;;;;;;;;5023966;28;20482;-42
2021/04/23 14:03:14;;;;;;;1.40;0.70;;;;;;;;;;5022829;28;20044;-42
2021/04/23 14:05:41;;;;;;;0.60;0.60;;;;;;;;;;5026679;28;20052;-43
2021/04/23 14:08:07;;;;;;;0.93;0.80;;;;;;;;;;5031366;28;20048;-43
2021/04/23 14:10:36;;;;;;;0.70;0.70;;;;;;;;;;5030575;28;20037;-45
2021/04/23 14:13:02;;;;;;;0.95;0.95;;;;;;;;;;5030335;28;20040;-42
2021/04/23 14:15:28;;;;;;;0.70;0.70;;;;;;;;;;5021757;28;20494;-43
2021/04/23 14:17:54;;;;;;;0.70;0.70;;;;;;;;;;5028559;28;20526;-42
2021/04/23 14:20:22;;;;;;;0.70;0.70;;;;;;;;;;5028434;28;20041;-43
2021/04/23 14:22:48;;;;;;;0.70;0.70;;;;;;;;;;5030971;28;20504;-47
2021/04/23 14:25:14;;;;;;;0.70;0.70;;;;;;;;;;5029096;28;20068;-42
2021/04/23 14:27:41;;;;;;;0.70;0.70;;;;;;;;;;5016205;28;20072;-42
2021/04/23 14:30:07;;;;;;;0.70;0.70;;;;;;;;;;5025725;28;20042;-43
2021/04/23 14:32:34;;;;;;;0.70;0.70;;;;;;;;;;5017280;28;20104;-43
2021/04/23 14:35:01;;;;;;;0.70;0.70;;;;;;;;;;5031650;28;20555;-42
2021/04/23 14:37:28;;;;;;;0.80;0.80;;;;;;;;;;5030346;28;20038;-45